sensor_id;sensor_type;location;lat;lon;timestamp;temperature;humidity
78876;DHT22;68253;52.506;5.486;2023-03-01T00:01:50;16.00;55.20
78876;DHT22;68253;52.506;5.486;2023-03-01T00:04:16;15.90;55.20
78876;DHT22;68253;52.506;5.486;2023-03-01T00:06:43;15.90;55.30
78876;DHT22;68253;52.506;5.486;2023-03-01T00:09:13;15.90;55.40
78876;DHT22;68253;52.506;5.486;2023-03-01T00:11:40;15.90;55.40
78876;DHT22;68253;52.506;5.486;2023-03-01T00:14:06;15.90;55.40
78876;DHT22;68253;52.506;5.486;2023-03-01T00:16:37;15.90;55.40
78876;DHT22;68253;52.506;5.486;2023-03-01T00:19:06;15.90;55.50
78876;DHT22;68253;52.506;5.486;2023-03-01T00:21:32;15.80;55.50
78876;DHT22;68253;52.506;5.486;2023-03-01T00:23:59;15.80;55.50
78876;DHT22;68253;52.506;5.486;2023-03-01T00:26:26;15.80;55.60
78876;DHT22;68253;52.506;5.486;2023-03-01T00:28:53;15.80;55.60
78876;DHT22;68253;52.506;5.486;2023-03-01T00:31:22;15.80;55.60
78876;DHT22;68253;52.506;5.486;2023-03-01T00:33:52;15.80;55.60
78876;DHT22;68253;52.506;5.486;2023-03-01T00:36:24;15.80;55.70
78876;DHT22;68253;52.506;5.486;2023-03-01T00:38:51;15.80;55.70
78876;DHT22;68253;52.506;5.486;2023-03-01T00:41:18;15.80;55.70
78876;DHT22;68253;52.506;5.486;2023-03-01T00:43:45;15.80;55.70
78876;DHT22;68253;52.506;5.486;2023-03-01T00:46:14;15.80;55.70
78876;DHT22;68253;52.506;5.486;2023-03-01T00:48:41;15.80;55.80
78876;DHT22;68253;52.506;5.486;2023-03-01T00:53:35;15.80;55.80
78876;DHT22;68253;52.506;5.486;2023-03-01T00:56:03;15.80;55.80
78876;DHT22;68253;52.506;5.486;2023-03-01T00:58:30;15.80;55.80
78876;DHT22;68253;52.506;5.486;2023-03-01T01:00:56;15.80;55.80
78876;DHT22;68253;52.506;5.486;2023-03-01T01:03:22;15.80;55.80
78876;DHT22;68253;52.506;5.486;2023-03-01T01:05:51;15.80;55.80
78876;DHT22;68253;52.506;5.486;2023-03-01T01:08:18;15.80;55.90
78876;DHT22;68253;52.506;5.486;2023-03-01T01:10:45;15.80;55.90
78876;DHT22;68253;52.506;5.486;2023-03-01T01:13:12;15.80;55.90
78876;DHT22;68253;52.506;5.486;2023-03-01T01:15:38;15.80;55.90
78876;DHT22;68253;52.506;5.486;2023-03-01T01:18:05;15.80;56.00
78876;DHT22;68253;52.506;5.486;2023-03-01T01:20:32;15.80;56.00
78876;DHT22;68253;52.506;5.486;2023-03-01T01:22:58;15.80;56.00
78876;DHT22;68253;52.506;5.486;2023-03-01T01:25:26;15.80;56.00
78876;DHT22;68253;52.506;5.486;2023-03-01T01:27:52;15.80;56.00
78876;DHT22;68253;52.506;5.486;2023-03-01T01:30:18;15.80;56.00
78876;DHT22;68253;52.506;5.486;2023-03-01T01:32:44;15.80;56.00
78876;DHT22;68253;52.506;5.486;2023-03-01T01:35:10;15.80;56.00
78876;DHT22;68253;52.506;5.486;2023-03-01T01:37:37;15.80;56.10
78876;DHT22;68253;52.506;5.486;2023-03-01T01:40:03;15.80;56.10
78876;DHT22;68253;52.506;5.486;2023-03-01T01:42:30;15.80;56.00
78876;DHT22;68253;52.506;5.486;2023-03-01T01:45:26;15.80;56.00
78876;DHT22;68253;52.506;5.486;2023-03-01T01:47:55;15.80;56.00
78876;DHT22;68253;52.506;5.486;2023-03-01T01:50:23;15.80;56.00
78876;DHT22;68253;52.506;5.486;2023-03-01T01:52:51;15.70;56.00
78876;DHT22;68253;52.506;5.486;2023-03-01T01:55:22;15.70;56.00
78876;DHT22;68253;52.506;5.486;2023-03-01T01:57:52;15.60;56.00
78876;DHT22;68253;52.506;5.486;2023-03-01T02:00:28;15.60;56.00
78876;DHT22;68253;52.506;5.486;2023-03-01T02:03:00;15.60;56.00
78876;DHT22;68253;52.506;5.486;2023-03-01T02:05:49;15.60;56.00
78876;DHT22;68253;52.506;5.486;2023-03-01T02:08:19;15.60;56.00
78876;DHT22;68253;52.506;5.486;2023-03-01T02:10:46;15.60;56.00
78876;DHT22;68253;52.506;5.486;2023-03-01T02:13:13;15.50;56.00
78876;DHT22;68253;52.506;5.486;2023-03-01T02:15:40;15.50;56.00
78876;DHT22;68253;52.506;5.486;2023-03-01T02:18:09;15.50;56.00
78876;DHT22;68253;52.506;5.486;2023-03-01T02:23:28;15.50;56.00
78876;DHT22;68253;52.506;5.486;2023-03-01T02:28:51;15.50;56.00
78876;DHT22;68253;52.506;5.486;2023-03-01T02:31:19;15.40;56.00
78876;DHT22;68253;52.506;5.486;2023-03-01T02:34:05;15.40;56.00
78876;DHT22;68253;52.506;5.486;2023-03-01T02:36:44;15.40;56.00
78876;DHT22;68253;52.506;5.486;2023-03-01T02:39:17;15.40;56.00
78876;DHT22;68253;52.506;5.486;2023-03-01T02:41:48;15.40;56.00
78876;DHT22;68253;52.506;5.486;2023-03-01T02:44:16;15.30;56.00
78876;DHT22;68253;52.506;5.486;2023-03-01T02:46:48;15.30;56.00
78876;DHT22;68253;52.506;5.486;2023-03-01T02:49:41;15.30;56.00
78876;DHT22;68253;52.506;5.486;2023-03-01T02:52:28;15.30;56.00
78876;DHT22;68253;52.506;5.486;2023-03-01T02:55:03;15.30;56.00
78876;DHT22;68253;52.506;5.486;2023-03-01T02:57:31;15.30;56.00
78876;DHT22;68253;52.506;5.486;2023-03-01T03:00:03;15.20;56.00
78876;DHT22;68253;52.506;5.486;2023-03-01T03:02:34;15.30;56.00
78876;DHT22;68253;52.506;5.486;2023-03-01T03:05:16;15.30;56.00
78876;DHT22;68253;52.506;5.486;2023-03-01T03:07:46;15.30;56.00
78876;DHT22;68253;52.506;5.486;2023-03-01T03:10:17;15.20;56.00
78876;DHT22;68253;52.506;5.486;2023-03-01T03:12:49;15.30;55.90
78876;DHT22;68253;52.506;5.486;2023-03-01T03:15:16;15.20;55.90
78876;DHT22;68253;52.506;5.486;2023-03-01T03:17:43;15.20;55.90
78876;DHT22;68253;52.506;5.486;2023-03-01T03:20:11;15.20;55.90
78876;DHT22;68253;52.506;5.486;2023-03-01T03:22:40;15.20;55.90
78876;DHT22;68253;52.506;5.486;2023-03-01T03:25:07;15.20;55.90
78876;DHT22;68253;52.506;5.486;2023-03-01T03:27:38;15.20;55.90
78876;DHT22;68253;52.506;5.486;2023-03-01T03:30:06;15.20;55.90
78876;DHT22;68253;52.506;5.486;2023-03-01T03:32:36;15.20;55.90
78876;DHT22;68253;52.506;5.486;2023-03-01T03:35:03;15.20;55.90
78876;DHT22;68253;52.506;5.486;2023-03-01T03:37:39;15.20;55.90
78876;DHT22;68253;52.506;5.486;2023-03-01T03:40:25;15.20;55.90
78876;DHT22;68253;52.506;5.486;2023-03-01T03:42:51;15.10;55.90
78876;DHT22;68253;52.506;5.486;2023-03-01T03:45:17;15.10;55.90
78876;DHT22;68253;52.506;5.486;2023-03-01T03:47:43;15.10;55.90
78876;DHT22;68253;52.506;5.486;2023-03-01T03:50:14;15.10;55.80
78876;DHT22;68253;52.506;5.486;2023-03-01T03:52:41;15.10;55.90
78876;DHT22;68253;52.506;5.486;2023-03-01T03:55:08;15.10;55.90
78876;DHT22;68253;52.506;5.486;2023-03-01T03:57:39;15.00;55.80
78876;DHT22;68253;52.506;5.486;2023-03-01T04:00:07;15.00;55.90
78876;DHT22;68253;52.506;5.486;2023-03-01T04:02:40;15.00;55.80
78876;DHT22;68253;52.506;5.486;2023-03-01T04:05:07;15.00;55.90
78876;DHT22;68253;52.506;5.486;2023-03-01T04:07:35;15.00;55.90
78876;DHT22;68253;52.506;5.486;2023-03-01T04:10:06;15.00;55.80
78876;DHT22;68253;52.506;5.486;2023-03-01T04:12:34;15.00;55.80
78876;DHT22;68253;52.506;5.486;2023-03-01T04:15:05;15.00;55.80
78876;DHT22;68253;52.506;5.486;2023-03-01T04:17:42;15.00;55.90
78876;DHT22;68253;52.506;5.486;2023-03-01T04:20:12;15.00;55.80
78876;DHT22;68253;52.506;5.486;2023-03-01T04:22:39;15.00;55.80
78876;DHT22;68253;52.506;5.486;2023-03-01T04:25:06;15.00;55.80
78876;DHT22;68253;52.506;5.486;2023-03-01T04:27:33;15.00;55.80
78876;DHT22;68253;52.506;5.486;2023-03-01T04:30:00;15.00;55.80
78876;DHT22;68253;52.506;5.486;2023-03-01T04:32:26;15.00;55.80
78876;DHT22;68253;52.506;5.486;2023-03-01T04:34:53;15.00;55.80
78876;DHT22;68253;52.506;5.486;2023-03-01T04:37:19;15.00;55.80
78876;DHT22;68253;52.506;5.486;2023-03-01T04:39:45;15.00;55.80
78876;DHT22;68253;52.506;5.486;2023-03-01T04:42:11;15.00;55.80
78876;DHT22;68253;52.506;5.486;2023-03-01T04:44:37;15.00;55.80
78876;DHT22;68253;52.506;5.486;2023-03-01T04:47:03;14.90;55.80
78876;DHT22;68253;52.506;5.486;2023-03-01T04:49:30;14.90;55.80
78876;DHT22;68253;52.506;5.486;2023-03-01T04:51:57;14.90;55.80
78876;DHT22;68253;52.506;5.486;2023-03-01T04:54:28;14.90;55.80
78876;DHT22;68253;52.506;5.486;2023-03-01T04:56:55;14.90;55.80
78876;DHT22;68253;52.506;5.486;2023-03-01T04:59:21;14.90;55.80
78876;DHT22;68253;52.506;5.486;2023-03-01T05:01:51;14.90;55.80
78876;DHT22;68253;52.506;5.486;2023-03-01T05:04:18;14.90;55.80
78876;DHT22;68253;52.506;5.486;2023-03-01T05:06:44;14.90;55.70
78876;DHT22;68253;52.506;5.486;2023-03-01T05:09:10;14.90;55.70
78876;DHT22;68253;52.506;5.486;2023-03-01T05:11:37;14.90;55.70
78876;DHT22;68253;52.506;5.486;2023-03-01T05:14:05;14.90;55.70
78876;DHT22;68253;52.506;5.486;2023-03-01T05:16:32;14.90;55.70
78876;DHT22;68253;52.506;5.486;2023-03-01T05:18:58;14.90;55.70
78876;DHT22;68253;52.506;5.486;2023-03-01T05:21:25;14.80;55.70
78876;DHT22;68253;52.506;5.486;2023-03-01T05:23:52;14.80;55.70
78876;DHT22;68253;52.506;5.486;2023-03-01T05:26:19;14.80;55.70
78876;DHT22;68253;52.506;5.486;2023-03-01T05:28:47;14.80;55.70
78876;DHT22;68253;52.506;5.486;2023-03-01T05:31:13;14.80;55.70
78876;DHT22;68253;52.506;5.486;2023-03-01T05:33:40;14.80;55.70
78876;DHT22;68253;52.506;5.486;2023-03-01T05:36:08;14.80;55.70
78876;DHT22;68253;52.506;5.486;2023-03-01T05:38:35;14.80;55.70
78876;DHT22;68253;52.506;5.486;2023-03-01T05:41:02;14.80;55.70
78876;DHT22;68253;52.506;5.486;2023-03-01T05:43:31;14.80;55.70
78876;DHT22;68253;52.506;5.486;2023-03-01T05:45:59;14.80;55.70
78876;DHT22;68253;52.506;5.486;2023-03-01T05:48:25;14.80;55.70
78876;DHT22;68253;52.506;5.486;2023-03-01T05:50:52;14.80;55.70
78876;DHT22;68253;52.506;5.486;2023-03-01T05:53:19;14.80;55.70
78876;DHT22;68253;52.506;5.486;2023-03-01T05:55:47;14.80;55.70
78876;DHT22;68253;52.506;5.486;2023-03-01T05:58:16;14.80;55.70
78876;DHT22;68253;52.506;5.486;2023-03-01T06:00:44;14.80;55.70
78876;DHT22;68253;52.506;5.486;2023-03-01T06:03:12;14.70;55.70
78876;DHT22;68253;52.506;5.486;2023-03-01T06:05:39;14.80;55.70
78876;DHT22;68253;52.506;5.486;2023-03-01T06:08:06;14.80;55.60
78876;DHT22;68253;52.506;5.486;2023-03-01T06:10:33;14.70;55.70
78876;DHT22;68253;52.506;5.486;2023-03-01T06:12:59;14.80;55.70
78876;DHT22;68253;52.506;5.486;2023-03-01T06:15:25;14.80;55.60
78876;DHT22;68253;52.506;5.486;2023-03-01T06:17:54;14.70;55.60
78876;DHT22;68253;52.506;5.486;2023-03-01T06:20:25;14.80;55.60
78876;DHT22;68253;52.506;5.486;2023-03-01T06:22:51;14.70;55.60
78876;DHT22;68253;52.506;5.486;2023-03-01T06:25:20;14.70;55.60
78876;DHT22;68253;52.506;5.486;2023-03-01T06:27:47;14.80;55.60
78876;DHT22;68253;52.506;5.486;2023-03-01T06:30:16;14.80;55.60
78876;DHT22;68253;52.506;5.486;2023-03-01T06:32:43;14.70;55.60
78876;DHT22;68253;52.506;5.486;2023-03-01T06:35:10;14.80;55.60
78876;DHT22;68253;52.506;5.486;2023-03-01T06:37:37;14.70;55.50
78876;DHT22;68253;52.506;5.486;2023-03-01T06:40:04;14.80;55.60
78876;DHT22;68253;52.506;5.486;2023-03-01T06:42:35;14.70;55.50
78876;DHT22;68253;52.506;5.486;2023-03-01T06:45:02;14.80;55.60
78876;DHT22;68253;52.506;5.486;2023-03-01T06:47:28;14.80;55.50
78876;DHT22;68253;52.506;5.486;2023-03-01T06:49:54;14.70;55.50
78876;DHT22;68253;52.506;5.486;2023-03-01T06:52:21;14.70;55.60
78876;DHT22;68253;52.506;5.486;2023-03-01T06:54:47;14.70;55.50
78876;DHT22;68253;52.506;5.486;2023-03-01T06:57:13;14.80;55.50
78876;DHT22;68253;52.506;5.486;2023-03-01T06:59:39;14.70;55.50
78876;DHT22;68253;52.506;5.486;2023-03-01T07:02:05;14.70;55.50
78876;DHT22;68253;52.506;5.486;2023-03-01T07:04:32;14.70;55.50
78876;DHT22;68253;52.506;5.486;2023-03-01T07:06:58;14.70;55.50
78876;DHT22;68253;52.506;5.486;2023-03-01T07:09:24;14.70;55.50
78876;DHT22;68253;52.506;5.486;2023-03-01T07:11:50;14.70;55.50
78876;DHT22;68253;52.506;5.486;2023-03-01T07:14:16;14.70;55.50
78876;DHT22;68253;52.506;5.486;2023-03-01T07:16:42;14.70;55.50
78876;DHT22;68253;52.506;5.486;2023-03-01T07:19:09;14.70;55.50
78876;DHT22;68253;52.506;5.486;2023-03-01T07:21:35;14.70;55.50
78876;DHT22;68253;52.506;5.486;2023-03-01T07:24:01;14.70;55.50
78876;DHT22;68253;52.506;5.486;2023-03-01T07:26:27;14.70;55.50
78876;DHT22;68253;52.506;5.486;2023-03-01T07:28:53;14.70;55.50
78876;DHT22;68253;52.506;5.486;2023-03-01T07:31:19;14.70;55.50
78876;DHT22;68253;52.506;5.486;2023-03-01T07:33:45;14.70;55.50
78876;DHT22;68253;52.506;5.486;2023-03-01T07:36:11;14.70;55.50
78876;DHT22;68253;52.506;5.486;2023-03-01T07:38:37;14.70;55.50
78876;DHT22;68253;52.506;5.486;2023-03-01T07:41:04;14.70;55.50
78876;DHT22;68253;52.506;5.486;2023-03-01T07:43:31;14.70;55.50
78876;DHT22;68253;52.506;5.486;2023-03-01T07:46:01;14.70;55.50
78876;DHT22;68253;52.506;5.486;2023-03-01T07:48:29;14.70;55.50
78876;DHT22;68253;52.506;5.486;2023-03-01T07:51:00;14.70;55.50
78876;DHT22;68253;52.506;5.486;2023-03-01T07:53:27;14.70;55.50
78876;DHT22;68253;52.506;5.486;2023-03-01T07:56:05;14.70;55.50
78876;DHT22;68253;52.506;5.486;2023-03-01T07:58:31;14.70;55.50
78876;DHT22;68253;52.506;5.486;2023-03-01T08:01:02;14.70;55.50
78876;DHT22;68253;52.506;5.486;2023-03-01T08:03:28;14.70;55.50
78876;DHT22;68253;52.506;5.486;2023-03-01T08:05:55;14.70;55.40
78876;DHT22;68253;52.506;5.486;2023-03-01T08:08:21;14.80;55.40
78876;DHT22;68253;52.506;5.486;2023-03-01T08:10:47;14.80;55.40
78876;DHT22;68253;52.506;5.486;2023-03-01T08:13:13;14.80;55.40
78876;DHT22;68253;52.506;5.486;2023-03-01T08:15:39;14.80;55.40
78876;DHT22;68253;52.506;5.486;2023-03-01T08:18:05;14.80;55.40
78876;DHT22;68253;52.506;5.486;2023-03-01T08:20:32;14.80;55.40
78876;DHT22;68253;52.506;5.486;2023-03-01T08:22:58;14.90;55.40
78876;DHT22;68253;52.506;5.486;2023-03-01T08:25:24;15.00;55.30
78876;DHT22;68253;52.506;5.486;2023-03-01T08:27:50;15.20;55.20
78876;DHT22;68253;52.506;5.486;2023-03-01T08:30:17;15.30;55.10
78876;DHT22;68253;52.506;5.486;2023-03-01T08:32:43;15.50;55.10
78876;DHT22;68253;52.506;5.486;2023-03-01T08:35:09;15.60;55.00
78876;DHT22;68253;52.506;5.486;2023-03-01T08:37:35;15.70;55.00
78876;DHT22;68253;52.506;5.486;2023-03-01T08:40:01;15.80;55.00
78876;DHT22;68253;52.506;5.486;2023-03-01T08:42:29;16.00;55.00
78876;DHT22;68253;52.506;5.486;2023-03-01T08:44:55;16.10;55.00
78876;DHT22;68253;52.506;5.486;2023-03-01T08:47:22;16.20;55.00
78876;DHT22;68253;52.506;5.486;2023-03-01T08:49:50;16.40;55.00
78876;DHT22;68253;52.506;5.486;2023-03-01T08:52:16;16.50;55.00
78876;DHT22;68253;52.506;5.486;2023-03-01T08:54:42;16.60;55.00
78876;DHT22;68253;52.506;5.486;2023-03-01T08:57:08;16.70;55.00
78876;DHT22;68253;52.506;5.486;2023-03-01T08:59:35;16.90;55.00
78876;DHT22;68253;52.506;5.486;2023-03-01T09:02:04;17.00;55.00
78876;DHT22;68253;52.506;5.486;2023-03-01T09:04:31;17.10;54.90
78876;DHT22;68253;52.506;5.486;2023-03-01T09:06:57;17.20;55.00
78876;DHT22;68253;52.506;5.486;2023-03-01T09:09:23;17.40;54.90
78876;DHT22;68253;52.506;5.486;2023-03-01T09:11:49;17.50;54.90
78876;DHT22;68253;52.506;5.486;2023-03-01T09:14:16;17.60;54.90
78876;DHT22;68253;52.506;5.486;2023-03-01T09:16:42;17.70;54.90
78876;DHT22;68253;52.506;5.486;2023-03-01T09:19:09;17.80;54.90
78876;DHT22;68253;52.506;5.486;2023-03-01T09:21:35;17.90;54.90
78876;DHT22;68253;52.506;5.486;2023-03-01T09:24:01;18.00;54.90
78876;DHT22;68253;52.506;5.486;2023-03-01T09:26:27;18.10;54.90
78876;DHT22;68253;52.506;5.486;2023-03-01T09:28:55;18.10;54.90
78876;DHT22;68253;52.506;5.486;2023-03-01T09:31:22;18.20;54.90
78876;DHT22;68253;52.506;5.486;2023-03-01T09:33:51;18.20;55.00
78876;DHT22;68253;52.506;5.486;2023-03-01T09:36:20;18.30;54.90
78876;DHT22;68253;52.506;5.486;2023-03-01T09:38:48;18.40;54.90
78876;DHT22;68253;52.506;5.486;2023-03-01T09:43:44;18.50;55.00
78876;DHT22;68253;52.506;5.486;2023-03-01T09:46:13;18.50;55.00
78876;DHT22;68253;52.506;5.486;2023-03-01T09:48:56;18.50;55.00
78876;DHT22;68253;52.506;5.486;2023-03-01T09:51:32;18.60;55.00
78876;DHT22;68253;52.506;5.486;2023-03-01T09:54:05;18.60;55.00
78876;DHT22;68253;52.506;5.486;2023-03-01T10:00:09;18.70;55.00
78876;DHT22;68253;52.506;5.486;2023-03-01T10:02:43;18.80;55.00
78876;DHT22;68253;52.506;5.486;2023-03-01T10:08:01;18.80;55.10
78876;DHT22;68253;52.506;5.486;2023-03-01T10:10:35;18.90;55.10
78876;DHT22;68253;52.506;5.486;2023-03-01T10:13:10;18.90;55.10
78876;DHT22;68253;52.506;5.486;2023-03-01T10:15:48;18.90;55.10
78876;DHT22;68253;52.506;5.486;2023-03-01T10:18:19;19.00;55.10
78876;DHT22;68253;52.506;5.486;2023-03-01T10:20:59;19.00;55.10
78876;DHT22;68253;52.506;5.486;2023-03-01T10:23:28;19.10;55.10
78876;DHT22;68253;52.506;5.486;2023-03-01T10:28:26;19.10;55.20
78876;DHT22;68253;52.506;5.486;2023-03-01T10:30:53;19.20;55.10
78876;DHT22;68253;52.506;5.486;2023-03-01T10:33:29;19.20;55.20
78876;DHT22;68253;52.506;5.486;2023-03-01T10:35:57;19.30;55.10
78876;DHT22;68253;52.506;5.486;2023-03-01T10:38:23;19.30;55.20
78876;DHT22;68253;52.506;5.486;2023-03-01T10:43:28;19.40;55.20
78876;DHT22;68253;52.506;5.486;2023-03-01T10:45:56;19.40;55.20
78876;DHT22;68253;52.506;5.486;2023-03-01T10:48:24;19.40;55.20
78876;DHT22;68253;52.506;5.486;2023-03-01T10:53:35;19.40;55.20
78876;DHT22;68253;52.506;5.486;2023-03-01T10:58:31;19.40;55.10
78876;DHT22;68253;52.506;5.486;2023-03-01T11:01:41;19.50;55.10
78876;DHT22;68253;52.506;5.486;2023-03-01T11:06:32;19.50;55.00
78876;DHT22;68253;52.506;5.486;2023-03-01T11:09:23;19.50;55.10
78876;DHT22;68253;52.506;5.486;2023-03-01T11:11:54;19.50;55.00
78876;DHT22;68253;52.506;5.486;2023-03-01T11:14:26;19.50;55.10
78876;DHT22;68253;52.506;5.486;2023-03-01T11:17:23;19.50;55.10
78876;DHT22;68253;52.506;5.486;2023-03-01T11:22:35;19.60;55.10
78876;DHT22;68253;52.506;5.486;2023-03-01T11:25:02;19.60;55.10
78876;DHT22;68253;52.506;5.486;2023-03-01T11:27:31;19.70;55.10
78876;DHT22;68253;52.506;5.486;2023-03-01T11:33:53;19.70;55.20
78876;DHT22;68253;52.506;5.486;2023-03-01T11:36:07;19.70;55.20
78876;DHT22;68253;52.506;5.486;2023-03-01T11:38:35;19.70;55.20
78876;DHT22;68253;52.506;5.486;2023-03-01T11:41:14;19.70;55.20
78876;DHT22;68253;52.506;5.486;2023-03-01T11:44:03;19.70;55.30
78876;DHT22;68253;52.506;5.486;2023-03-01T11:47:00;19.70;55.20
78876;DHT22;68253;52.506;5.486;2023-03-01T11:49:51;19.70;55.30
78876;DHT22;68253;52.506;5.486;2023-03-01T12:03:39;19.70;55.40
78876;DHT22;68253;52.506;5.486;2023-03-01T12:08:57;19.70;55.40
78876;DHT22;68253;52.506;5.486;2023-03-01T12:20:20;19.50;55.70
78876;DHT22;68253;52.506;5.486;2023-03-01T12:23:02;19.50;55.70
78876;DHT22;68253;52.506;5.486;2023-03-01T12:33:52;19.50;56.10
78876;DHT22;68253;52.506;5.486;2023-03-01T12:36:55;19.50;56.10
78876;DHT22;68253;52.506;5.486;2023-03-01T12:39:39;19.50;56.20
78876;DHT22;68253;52.506;5.486;2023-03-01T12:44:42;19.50;56.30
78876;DHT22;68253;52.506;5.486;2023-03-01T12:50:18;19.60;56.30
78876;DHT22;68253;52.506;5.486;2023-03-01T12:53:07;19.60;56.30
78876;DHT22;68253;52.506;5.486;2023-03-01T12:55:42;19.60;56.30
78876;DHT22;68253;52.506;5.486;2023-03-01T12:58:26;19.60;56.40
78876;DHT22;68253;52.506;5.486;2023-03-01T13:01:08;19.70;56.40
78876;DHT22;68253;52.506;5.486;2023-03-01T13:11:57;19.70;56.20
78876;DHT22;68253;52.506;5.486;2023-03-01T13:16:53;19.70;56.10
78876;DHT22;68253;52.506;5.486;2023-03-01T13:19:20;19.70;56.00
78876;DHT22;68253;52.506;5.486;2023-03-01T13:21:48;19.70;56.00
78876;DHT22;68253;52.506;5.486;2023-03-01T13:24:38;19.70;55.90
78876;DHT22;68253;52.506;5.486;2023-03-01T13:32:25;19.60;55.80
78876;DHT22;68253;52.506;5.486;2023-03-01T13:37:44;19.60;55.80
78876;DHT22;68253;52.506;5.486;2023-03-01T13:42:45;19.60;55.70
78876;DHT22;68253;52.506;5.486;2023-03-01T13:48:03;19.60;55.70
78876;DHT22;68253;52.506;5.486;2023-03-01T13:50:36;19.60;55.60
78876;DHT22;68253;52.506;5.486;2023-03-01T13:53:06;19.60;55.60
78876;DHT22;68253;52.506;5.486;2023-03-01T13:55:40;19.50;55.50
78876;DHT22;68253;52.506;5.486;2023-03-01T14:00:45;19.60;55.50
78876;DHT22;68253;52.506;5.486;2023-03-01T14:03:18;19.60;55.60
78876;DHT22;68253;52.506;5.486;2023-03-01T14:08:29;19.70;55.50
78876;DHT22;68253;52.506;5.486;2023-03-01T14:11:24;19.60;55.60
78876;DHT22;68253;52.506;5.486;2023-03-01T14:14:19;19.70;55.50
78876;DHT22;68253;52.506;5.486;2023-03-01T14:19:58;19.70;55.50
78876;DHT22;68253;52.506;5.486;2023-03-01T14:22:30;19.70;55.60
78876;DHT22;68253;52.506;5.486;2023-03-01T14:25:16;19.70;55.60
78876;DHT22;68253;52.506;5.486;2023-03-01T14:27:43;19.70;55.60
78876;DHT22;68253;52.506;5.486;2023-03-01T14:30:17;19.70;55.70
78876;DHT22;68253;52.506;5.486;2023-03-01T14:32:53;19.70;55.60
78876;DHT22;68253;52.506;5.486;2023-03-01T14:35:31;19.70;55.60
78876;DHT22;68253;52.506;5.486;2023-03-01T14:37:58;19.70;55.60
78876;DHT22;68253;52.506;5.486;2023-03-01T14:40:28;19.70;55.60
78876;DHT22;68253;52.506;5.486;2023-03-01T14:42:57;19.70;55.70
78876;DHT22;68253;52.506;5.486;2023-03-01T14:45:26;19.70;55.60
78876;DHT22;68253;52.506;5.486;2023-03-01T14:47:52;19.70;55.60
78876;DHT22;68253;52.506;5.486;2023-03-01T14:50:24;19.60;55.20
78876;DHT22;68253;52.506;5.486;2023-03-01T14:52:53;19.60;54.40
78876;DHT22;68253;52.506;5.486;2023-03-01T14:55:34;19.50;53.90
78876;DHT22;68253;52.506;5.486;2023-03-01T14:58:05;19.40;53.40
78876;DHT22;68253;52.506;5.486;2023-03-01T15:00:33;19.30;53.20
78876;DHT22;68253;52.506;5.486;2023-03-01T15:03:17;19.20;53.10
78876;DHT22;68253;52.506;5.486;2023-03-01T15:05:45;19.20;52.80
78876;DHT22;68253;52.506;5.486;2023-03-01T15:08:21;19.00;52.50
78876;DHT22;68253;52.506;5.486;2023-03-01T15:11:04;19.00;51.80
78876;DHT22;68253;52.506;5.486;2023-03-01T15:13:35;18.90;51.40
78876;DHT22;68253;52.506;5.486;2023-03-01T15:16:07;18.80;51.20
78876;DHT22;68253;52.506;5.486;2023-03-01T15:18:34;18.80;50.90
78876;DHT22;68253;52.506;5.486;2023-03-01T15:21:16;18.70;50.80
78876;DHT22;68253;52.506;5.486;2023-03-01T15:23:48;18.70;50.40
78876;DHT22;68253;52.506;5.486;2023-03-01T15:26:45;18.60;50.30
78876;DHT22;68253;52.506;5.486;2023-03-01T15:29:17;18.50;50.00
78876;DHT22;68253;52.506;5.486;2023-03-01T15:32:03;18.40;49.90
78876;DHT22;68253;52.506;5.486;2023-03-01T15:34:32;18.40;49.60
78876;DHT22;68253;52.506;5.486;2023-03-01T15:37:01;18.30;49.60
78876;DHT22;68253;52.506;5.486;2023-03-01T15:39:36;18.20;49.40
78876;DHT22;68253;52.506;5.486;2023-03-01T15:44:33;18.10;49.00
78876;DHT22;68253;52.506;5.486;2023-03-01T15:47:00;18.00;48.80
78876;DHT22;68253;52.506;5.486;2023-03-01T15:49:39;18.00;49.00
78876;DHT22;68253;52.506;5.486;2023-03-01T15:52:12;17.80;48.90
78876;DHT22;68253;52.506;5.486;2023-03-01T15:54:39;17.80;48.70
78876;DHT22;68253;52.506;5.486;2023-03-01T15:57:13;17.80;48.60
78876;DHT22;68253;52.506;5.486;2023-03-01T15:59:42;17.80;48.40
78876;DHT22;68253;52.506;5.486;2023-03-01T16:02:11;17.60;48.40
78876;DHT22;68253;52.506;5.486;2023-03-01T16:04:39;17.60;48.20
78876;DHT22;68253;52.506;5.486;2023-03-01T16:07:05;17.50;48.20
78876;DHT22;68253;52.506;5.486;2023-03-01T16:09:32;17.50;48.10
78876;DHT22;68253;52.506;5.486;2023-03-01T16:11:58;17.50;48.10
78876;DHT22;68253;52.506;5.486;2023-03-01T16:14:24;17.40;48.00
78876;DHT22;68253;52.506;5.486;2023-03-01T16:16:50;17.40;48.00
78876;DHT22;68253;52.506;5.486;2023-03-01T16:19:16;17.30;47.90
78876;DHT22;68253;52.506;5.486;2023-03-01T16:21:43;17.20;47.90
78876;DHT22;68253;52.506;5.486;2023-03-01T16:24:13;17.20;47.90
78876;DHT22;68253;52.506;5.486;2023-03-01T16:26:39;17.20;47.90
78876;DHT22;68253;52.506;5.486;2023-03-01T16:29:05;17.20;48.00
78876;DHT22;68253;52.506;5.486;2023-03-01T16:31:32;17.10;48.20
78876;DHT22;68253;52.506;5.486;2023-03-01T16:33:59;17.10;48.40
78876;DHT22;68253;52.506;5.486;2023-03-01T16:36:26;17.20;48.50
78876;DHT22;68253;52.506;5.486;2023-03-01T16:38:55;17.20;48.70
78876;DHT22;68253;52.506;5.486;2023-03-01T16:41:24;17.20;48.80
78876;DHT22;68253;52.506;5.486;2023-03-01T16:43:50;17.20;48.90
78876;DHT22;68253;52.506;5.486;2023-03-01T16:46:19;17.30;49.00
78876;DHT22;68253;52.506;5.486;2023-03-01T16:48:46;17.40;49.10
78876;DHT22;68253;52.506;5.486;2023-03-01T16:51:12;17.40;49.20
78876;DHT22;68253;52.506;5.486;2023-03-01T16:53:39;17.50;49.50
78876;DHT22;68253;52.506;5.486;2023-03-01T16:56:07;17.50;49.70
78876;DHT22;68253;52.506;5.486;2023-03-01T16:58:35;17.60;49.90
78876;DHT22;68253;52.506;5.486;2023-03-01T17:01:15;17.60;50.10
78876;DHT22;68253;52.506;5.486;2023-03-01T17:03:42;17.80;50.30
78876;DHT22;68253;52.506;5.486;2023-03-01T17:06:11;17.80;50.40
78876;DHT22;68253;52.506;5.486;2023-03-01T17:08:38;17.90;50.50
78876;DHT22;68253;52.506;5.486;2023-03-01T17:13:35;18.00;50.50
78876;DHT22;68253;52.506;5.486;2023-03-01T17:16:04;18.00;50.70
78876;DHT22;68253;52.506;5.486;2023-03-01T17:18:30;18.10;50.70
78876;DHT22;68253;52.506;5.486;2023-03-01T17:20:57;18.20;50.80
78876;DHT22;68253;52.506;5.486;2023-03-01T17:23:23;18.20;50.80
78876;DHT22;68253;52.506;5.486;2023-03-01T17:25:49;18.30;50.90
78876;DHT22;68253;52.506;5.486;2023-03-01T17:28:16;18.40;50.90
78876;DHT22;68253;52.506;5.486;2023-03-01T17:30:45;18.40;51.00
78876;DHT22;68253;52.506;5.486;2023-03-01T17:33:13;18.50;51.10
78876;DHT22;68253;52.506;5.486;2023-03-01T17:35:39;18.50;51.20
78876;DHT22;68253;52.506;5.486;2023-03-01T17:38:06;18.60;51.20